Time;durP1;ratioP1;P1;durP2;ratioP2;P2;SDS_P1;SDS_P2;PMS_P1;PMS_P2;Temp;Humidity;BMP_temperature;BMP_pressure;BME280_temperature;BME280_humidity;BME280_pressure;Samples;Min_cycle;Max_cycle;Signal;HPM_P1;HPM_P2
2023/04/06 00:02:04;;;;;;;;;;;5.10;79.90;;;;;;4992087;28;20063;-74
2023/04/06 00:04:30;;;;;;;;;;;4.90;81.20;;;;;;5008764;28;19928;-74
2023/04/06 00:06:56;;;;;;;;;;;5.00;81.70;;;;;;4991696;28;19925;-74
2023/04/06 00:09:22;;;;;;;;;;;4.90;82.50;;;;;;5013408;28;20356;-74
2023/04/06 00:11:47;;;;;;;;;;;4.90;83.00;;;;;;5035944;28;19971;-74
2023/04/06 00:14:13;;;;;;;;;;;4.80;84.60;;;;;;5009456;28;19925;-74
2023/04/06 00:16:39;;;;;;;;;;;4.80;86.70;;;;;;5008441;28;19939;-74
2023/04/06 00:19:04;;;;;;;;;;;4.80;86.60;;;;;;5009867;28;19925;-74
2023/04/06 00:21:30;;;;;;;;;;;4.80;87.80;;;;;;5023580;28;19925;-74
2023/04/06 00:23:56;;;;;;;;;;;4.70;88.30;;;;;;5007829;28;20285;-74
2023/04/06 00:26:22;;;;;;;;;;;4.70;88.90;;;;;;5001390;28;19967;-74
2023/04/06 00:28:49;;;;;;;;;;;4.60;90.00;;;;;;4991745;28;19925;-75
2023/04/06 00:31:15;;;;;;;;;;;4.60;89.80;;;;;;5008916;28;19929;-74
2023/04/06 00:33:41;;;;;;;;;;;4.50;90.20;;;;;;5023464;28;19974;-74
2023/04/06 00:36:06;;;;;;;;;;;4.50;90.30;;;;;;5008423;28;20004;-74
2023/04/06 00:38:32;;;;;;;;;;;4.40;90.70;;;;;;5008510;28;19947;-74
2023/04/06 00:40:57;;;;;;;;;;;4.30;90.70;;;;;;5009143;28;19922;-74
2023/04/06 00:43:24;;;;;;;;;;;4.30;91.00;;;;;;5010175;28;19972;-74
2023/04/06 00:45:50;;;;;;;;;;;4.20;90.40;;;;;;5009282;28;19922;-74
2023/04/06 00:48:16;;;;;;;;;;;4.10;89.90;;;;;;5008309;28;20370;-74
2023/04/06 00:50:42;;;;;;;;;;;4.10;91.70;;;;;;4990451;28;20274;-74
2023/04/06 00:53:07;;;;;;;;;;;4.10;91.60;;;;;;5017863;28;19921;-74
2023/04/06 00:55:35;;;;;;;;;;;4.10;91.30;;;;;;5011186;28;19928;-73
2023/04/06 00:58:01;;;;;;;;;;;4.00;91.00;;;;;;5021814;28;20016;-74
2023/04/06 01:00:27;;;;;;;;;;;4.00;90.60;;;;;;5028302;28;19932;-74
2023/04/06 01:02:53;;;;;;;;;;;4.00;90.90;;;;;;5027707;28;19925;-74
2023/04/06 01:05:19;;;;;;;;;;;4.00;90.60;;;;;;5027790;28;19922;-76
2023/04/06 01:07:44;;;;;;;;;;;4.00;91.70;;;;;;5010831;28;20565;-74
2023/04/06 01:10:10;;;;;;;;;;;4.10;91.60;;;;;;5019386;28;19921;-74
2023/04/06 01:12:37;;;;;;;;;;;4.00;91.90;;;;;;5008391;28;19986;-75
2023/04/06 01:15:03;;;;;;;;;;;4.00;92.30;;;;;;5013644;28;19921;-74
2023/04/06 01:17:28;;;;;;;;;;;4.00;92.00;;;;;;5024745;28;19921;-75
2023/04/06 01:19:54;;;;;;;;;;;4.00;93.10;;;;;;5026711;28;20296;-75
2023/04/06 01:22:20;;;;;;;;;;;4.00;93.20;;;;;;5027939;28;19928;-77
2023/04/06 01:24:46;;;;;;;;;;;4.00;93.70;;;;;;5028294;28;20033;-75
2023/04/06 01:27:12;;;;;;;;;;;3.90;93.60;;;;;;5019942;28;20397;-75
2023/04/06 01:29:40;;;;;;;;;;;3.90;94.20;;;;;;4990879;28;19928;-74
2023/04/06 01:32:06;;;;;;;;;;;3.90;94.10;;;;;;4990714;28;19972;-74
2023/04/06 01:34:32;;;;;;;;;;;3.90;93.20;;;;;;4990347;28;20018;-74
2023/04/06 01:36:57;;;;;;;;;;;3.80;93.30;;;;;;5012937;28;19978;-74
2023/04/06 01:39:23;;;;;;;;;;;3.80;93.70;;;;;;4999985;28;20374;-77
2023/04/06 01:41:48;;;;;;;;;;;3.80;93.90;;;;;;5026793;28;19925;-74
2023/04/06 01:44:18;;;;;;;;;;;3.80;93.70;;;;;;5028007;28;20366;-74
2023/04/06 01:46:44;;;;;;;;;;;3.80;94.70;;;;;;5022748;28;20830;-74
2023/04/06 01:49:09;;;;;;;;;;;3.70;94.40;;;;;;5012369;28;19925;-74
2023/04/06 01:51:35;;;;;;;;;;;3.70;94.50;;;;;;5008640;28;20424;-74
2023/04/06 01:54:00;;;;;;;;;;;3.60;93.60;;;;;;5010741;28;19921;-74
2023/04/06 01:56:26;;;;;;;;;;;3.60;95.00;;;;;;5027650;28;19921;-76
2023/04/06 01:58:52;;;;;;;;;;;3.60;94.90;;;;;;5028157;28;19921;-75
2023/04/06 02:01:17;;;;;;;;;;;3.60;94.50;;;;;;5025961;28;20311;-74
2023/04/06 02:03:43;;;;;;;;;;;3.60;94.10;;;;;;5007435;28;20000;-74
2023/04/06 02:06:08;;;;;;;;;;;3.50;94.70;;;;;;5007836;28;19933;-74
2023/04/06 02:08:34;;;;;;;;;;;3.60;95.30;;;;;;5008956;28;19925;-74
2023/04/06 02:11:00;;;;;;;;;;;3.50;94.70;;;;;;5008384;28;19921;-74
2023/04/06 02:13:25;;;;;;;;;;;3.50;94.60;;;;;;4990568;28;20378;-78
2023/04/06 02:15:51;;;;;;;;;;;3.50;94.20;;;;;;4991641;28;19921;-76
2023/04/06 02:18:18;;;;;;;;;;;3.50;94.10;;;;;;5010556;28;20370;-76
2023/04/06 02:20:44;;;;;;;;;;;3.50;94.00;;;;;;5025378;28;19928;-76
2023/04/06 02:23:10;;;;;;;;;;;3.50;93.80;;;;;;4995959;28;20012;-76
2023/04/06 02:25:35;;;;;;;;;;;3.40;93.70;;;;;;5011218;28;19979;-75
2023/04/06 02:28:01;;;;;;;;;;;3.40;94.00;;;;;;5006760;28;20539;-76
2023/04/06 02:30:27;;;;;;;;;;;3.40;94.30;;;;;;5030825;28;19921;-78
2023/04/06 02:32:52;;;;;;;;;;;3.40;93.70;;;;;;5014502;28;19929;-74
2023/04/06 02:35:18;;;;;;;;;;;3.30;93.50;;;;;;5010711;28;19922;-75
2023/04/06 02:37:43;;;;;;;;;;;3.30;93.70;;;;;;5010522;28;19922;-74
2023/04/06 02:40:09;;;;;;;;;;;3.30;93.40;;;;;;5011237;28;19940;-76
2023/04/06 02:42:35;;;;;;;;;;;3.20;93.20;;;;;;4993464;28;19936;-76
2023/04/06 02:45:01;;;;;;;;;;;3.20;93.70;;;;;;5027759;28;19925;-73
2023/04/06 02:47:26;;;;;;;;;;;3.20;93.70;;;;;;5012004;28;19972;-75
2023/04/06 02:49:52;;;;;;;;;;;3.10;93.40;;;;;;5030169;28;20021;-73
2023/04/06 02:52:18;;;;;;;;;;;3.10;93.70;;;;;;5022166;28;19925;-73
2023/04/06 02:54:43;;;;;;;;;;;3.10;93.60;;;;;;5010309;28;19921;-72
2023/04/06 02:57:09;;;;;;;;;;;3.10;94.40;;;;;;5011073;28;19980;-72
2023/04/06 02:59:35;;;;;;;;;;;3.10;94.20;;;;;;5010579;28;19929;-73
2023/04/06 03:02:00;;;;;;;;;;;3.00;95.10;;;;;;4977032;28;19947;-72
2023/04/06 03:04:26;;;;;;;;;;;3.00;95.00;;;;;;5010331;28;19968;-72
2023/04/06 03:06:52;;;;;;;;;;;3.00;95.10;;;;;;5009426;28;19925;-73
2023/04/06 03:09:18;;;;;;;;;;;3.00;95.10;;;;;;5010861;28;20019;-72
2023/04/06 03:11:43;;;;;;;;;;;3.00;95.00;;;;;;4993989;28;20023;-72
2023/04/06 03:14:09;;;;;;;;;;;2.90;95.90;;;;;;5010763;28;19921;-72
2023/04/06 03:16:34;;;;;;;;;;;2.90;96.00;;;;;;5011200;28;20004;-73
2023/04/06 03:19:00;;;;;;;;;;;2.90;94.80;;;;;;5012286;28;20390;-73
2023/04/06 03:21:25;;;;;;;;;;;2.90;95.30;;;;;;5029400;28;19925;-73
2023/04/06 03:23:51;;;;;;;;;;;2.90;94.60;;;;;;5012888;28;20068;-72
2023/04/06 03:26:17;;;;;;;;;;;2.90;94.50;;;;;;5030449;28;20374;-72
2023/04/06 03:28:42;;;;;;;;;;;2.80;94.60;;;;;;5022396;28;19925;-72
2023/04/06 03:31:08;;;;;;;;;;;2.80;94.60;;;;;;5016513;28;19924;-72
2023/04/06 03:33:33;;;;;;;;;;;2.80;93.70;;;;;;5009190;28;19925;-72
2023/04/06 03:35:59;;;;;;;;;;;2.70;93.10;;;;;;5002364;28;20369;-72
2023/04/06 03:38:25;;;;;;;;;;;2.70;96.60;;;;;;5030198;28;19925;-72
2023/04/06 03:40:50;;;;;;;;;;;2.60;96.50;;;;;;5029637;28;19921;-72
2023/04/06 03:43:16;;;;;;;;;;;2.50;97.30;;;;;;5030004;28;19943;-72
2023/04/06 03:45:41;;;;;;;;;;;2.50;97.90;;;;;;5025277;28;19925;-72
2023/04/06 03:48:07;;;;;;;;;;;2.40;98.70;;;;;;4991972;28;20395;-72
2023/04/06 03:50:32;;;;;;;;;;;2.40;98.70;;;;;;4985723;28;19925;-72
2023/04/06 03:52:58;;;;;;;;;;;2.40;99.90;;;;;;5023760;28;20009;-73
2023/04/06 03:55:24;;;;;;;;;;;2.40;99.00;;;;;;5017983;28;19922;-73
2023/04/06 03:57:49;;;;;;;;;;;2.40;99.80;;;;;;4998877;28;20015;-73
2023/04/06 04:00:15;;;;;;;;;;;2.40;99.30;;;;;;5029728;28;20016;-73
2023/04/06 04:02:40;;;;;;;;;;;2.40;99.60;;;;;;5044123;28;19921;-72
2023/04/06 04:05:06;;;;;;;;;;;2.50;99.90;;;;;;5022121;28;20377;-73
2023/04/06 04:07:32;;;;;;;;;;;2.40;99.10;;;;;;5028748;28;19932;-75
2023/04/06 04:09:57;;;;;;;;;;;2.40;98.00;;;;;;5029234;28;19974;-72
2023/04/06 04:12:23;;;;;;;;;;;2.40;98.90;;;;;;5019267;28;19921;-72
2023/04/06 04:14:48;;;;;;;;;;;2.40;98.00;;;;;;5014029;28;19928;-73
2023/04/06 04:17:14;;;;;;;;;;;2.40;98.80;;;;;;5028468;28;19974;-74
2023/04/06 04:19:40;;;;;;;;;;;2.40;98.80;;;;;;5006267;28;20294;-73
2023/04/06 04:22:06;;;;;;;;;;;2.40;99.00;;;;;;5008825;28;20000;-72
2023/04/06 04:24:31;;;;;;;;;;;2.40;98.50;;;;;;5009788;28;19947;-73
2023/04/06 04:26:57;;;;;;;;;;;2.40;99.10;;;;;;4991743;28;19928;-72
2023/04/06 04:29:23;;;;;;;;;;;2.40;99.60;;;;;;4992419;28;20012;-73
2023/04/06 04:31:49;;;;;;;;;;;2.50;99.40;;;;;;5008409;28;19925;-72
2023/04/06 04:34:15;;;;;;;;;;;2.50;99.50;;;;;;5009043;28;19921;-73
2023/04/06 04:36:41;;;;;;;;;;;2.50;99.20;;;;;;5010965;28;20697;-73
2023/04/06 04:39:07;;;;;;;;;;;2.50;98.70;;;;;;5028735;28;20301;-72
2023/04/06 04:41:33;;;;;;;;;;;2.40;98.40;;;;;;5024731;28;19925;-75
2023/04/06 04:43:58;;;;;;;;;;;2.40;98.90;;;;;;5009156;28;20297;-73
2023/04/06 04:46:24;;;;;;;;;;;2.40;99.00;;;;;;5009190;28;19936;-73
2023/04/06 04:48:50;;;;;;;;;;;2.40;99.10;;;;;;4990690;28;19927;-73
2023/04/06 04:51:15;;;;;;;;;;;2.40;99.20;;;;;;5008277;28;19925;-72
2023/04/06 04:53:41;;;;;;;;;;;2.40;99.30;;;;;;5009002;28;19927;-73
2023/04/06 04:56:06;;;;;;;;;;;2.40;99.20;;;;;;5009885;28;19974;-72
2023/04/06 04:58:32;;;;;;;;;;;2.40;99.80;;;;;;5029025;28;20281;-72
2023/04/06 05:00:57;;;;;;;;;;;2.40;99.60;;;;;;5013830;28;19933;-72
2023/04/06 05:03:25;;;;;;;;;;;2.40;99.20;;;;;;5030670;28;20340;-72
2023/04/06 05:05:51;;;;;;;;;;;2.40;99.20;;;;;;4994821;28;19925;-72
2023/04/06 05:08:16;;;;;;;;;;;2.40;99.40;;;;;;5008526;28;19967;-72
2023/04/06 05:10:42;;;;;;;;;;;2.40;99.10;;;;;;4991156;28;19928;-72
2023/04/06 05:13:08;;;;;;;;;;;2.40;99.10;;;;;;5009169;28;19931;-72
2023/04/06 05:15:34;;;;;;;;;;;2.30;99.50;;;;;;5019494;28;19947;-74
2023/04/06 05:18:00;;;;;;;;;;;2.30;99.50;;;;;;5027293;28;19925;-72
2023/04/06 05:20:26;;;;;;;;;;;2.30;99.80;;;;;;5010038;28;20296;-72
2023/04/06 05:22:52;;;;;;;;;;;2.30;99.90;;;;;;5027784;28;20266;-73
2023/04/06 05:25:18;;;;;;;;;;;2.30;99.80;;;;;;5015248;28;19928;-72
2023/04/06 05:27:43;;;;;;;;;;;2.30;99.90;;;;;;4991135;28;19965;-73
2023/04/06 05:30:09;;;;;;;;;;;2.40;99.20;;;;;;5008770;28;19926;-73
2023/04/06 05:32:35;;;;;;;;;;;2.40;99.80;;;;;;5007739;28;19930;-72
2023/04/06 05:35:00;;;;;;;;;;;2.40;99.90;;;;;;5008538;28;19922;-72
2023/04/06 05:37:26;;;;;;;;;;;2.40;99.90;;;;;;5017278;28;19974;-72
2023/04/06 05:39:51;;;;;;;;;;;2.50;99.90;;;;;;5027839;28;20357;-73
2023/04/06 05:42:17;;;;;;;;;;;2.50;99.90;;;;;;5017643;28;19921;-72
2023/04/06 05:44:42;;;;;;;;;;;2.50;99.90;;;;;;5008182;28;20443;-72
2023/04/06 05:47:08;;;;;;;;;;;2.50;99.90;;;;;;4990684;28;19932;-72
2023/04/06 05:49:34;;;;;;;;;;;2.50;99.90;;;;;;5007680;28;19925;-73
2023/04/06 05:52:00;;;;;;;;;;;2.60;99.90;;;;;;5009265;28;20036;-72
2023/04/06 05:54:26;;;;;;;;;;;2.60;99.90;;;;;;5012722;28;21023;-73
2023/04/06 05:56:52;;;;;;;;;;;2.60;99.90;;;;;;5011073;28;19926;-73
2023/04/06 05:59:17;;;;;;;;;;;2.60;99.90;;;;;;5024720;28;19921;-73
2023/04/06 06:01:43;;;;;;;;;;;2.60;99.90;;;;;;5030577;28;19927;-72
2023/04/06 06:04:09;;;;;;;;;;;2.70;99.90;;;;;;4999521;28;19930;-73
2023/04/06 06:06:35;;;;;;;;;;;2.70;99.90;;;;;;4971893;28;19922;-72
2023/04/06 06:09:02;;;;;;;;;;;2.80;99.90;;;;;;4972630;28;19925;-72
2023/04/06 06:11:28;;;;;;;;;;;2.80;99.90;;;;;;4977224;28;19953;-73
2023/04/06 06:13:53;;;;;;;;;;;2.80;99.90;;;;;;4990996;28;19925;-72
2023/04/06 06:16:19;;;;;;;;;;;2.90;99.60;;;;;;4984092;28;20375;-72
2023/04/06 06:18:45;;;;;;;;;;;2.90;99.90;;;;;;4986585;28;20141;-73
2023/04/06 06:21:14;;;;;;;;;;;3.00;99.40;;;;;;4954007;28;19968;-77
2023/04/06 06:23:41;;;;;;;;;;;3.00;99.90;;;;;;4972540;28;19944;-78
2023/04/06 06:26:07;;;;;;;;;;;3.10;99.90;;;;;;4972836;28;19984;-68
2023/04/06 06:28:32;;;;;;;;;;;3.20;99.90;;;;;;4972470;28;19973;-68
2023/04/06 06:30:58;;;;;;;;;;;3.30;99.90;;;;;;4971663;28;20412;-76
2023/04/06 06:33:24;;;;;;;;;;;3.40;99.90;;;;;;4971512;28;19945;-77
2023/04/06 06:35:50;;;;;;;;;;;3.40;99.90;;;;;;4969425;28;20335;-72
2023/04/06 06:38:17;;;;;;;;;;;3.50;99.90;;;;;;4975578;28;19922;-78
2023/04/06 06:40:42;;;;;;;;;;;3.50;99.90;;;;;;4979913;28;19932;-77
2023/04/06 06:43:08;;;;;;;;;;;3.50;99.90;;;;;;4991438;28;20415;-78
2023/04/06 06:45:33;;;;;;;;;;;3.50;99.90;;;;;;4977103;28;19929;-77
2023/04/06 06:47:59;;;;;;;;;;;3.50;99.90;;;;;;4970684;28;19973;-77
2023/04/06 06:50:25;;;;;;;;;;;3.50;99.90;;;;;;4970426;28;19933;-77
2023/04/06 06:52:50;;;;;;;;;;;3.50;99.90;;;;;;4971605;28;19922;-77
2023/04/06 06:55:18;;;;;;;;;;;3.60;99.90;;;;;;4971055;28;20044;-77
2023/04/06 06:57:46;;;;;;;;;;;3.60;99.90;;;;;;4971743;28;19965;-77
2023/04/06 07:00:13;;;;;;;;;;;3.60;99.90;;;;;;4979338;28;20304;-77
2023/04/06 07:02:38;;;;;;;;;;;3.70;99.90;;;;;;4977130;28;20028;-77
2023/04/06 07:05:04;;;;;;;;;;;3.70;99.90;;;;;;5011085;28;20393;-77
2023/04/06 07:07:31;;;;;;;;;;;3.80;99.90;;;;;;5010047;28;19922;-77
2023/04/06 07:09:57;;;;;;;;;;;3.90;99.90;;;;;;5010409;28;20396;-77
2023/04/06 07:12:23;;;;;;;;;;;4.00;99.90;;;;;;5026102;28;19926;-77
2023/04/06 07:14:48;;;;;;;;;;;4.10;99.90;;;;;;5010244;28;19922;-77
2023/04/06 07:17:14;;;;;;;;;;;4.20;99.90;;;;;;5009664;28;20366;-76
2023/04/06 07:19:40;;;;;;;;;;;4.30;99.90;;;;;;5010765;28;19929;-77
2023/04/06 07:22:06;;;;;;;;;;;4.40;99.90;;;;;;5031042;28;20073;-77
2023/04/06 07:24:31;;;;;;;;;;;4.50;99.90;;;;;;5030434;28;20012;-77
2023/04/06 07:26:58;;;;;;;;;;;4.50;99.90;;;;;;4996029;28;19935;-77
2023/04/06 07:29:24;;;;;;;;;;;4.60;99.90;;;;;;5030288;28;19927;-77
2023/04/06 07:31:49;;;;;;;;;;;4.70;99.90;;;;;;5029241;28;20019;-77
2023/04/06 07:34:15;;;;;;;;;;;4.80;99.90;;;;;;5011317;28;19925;-77
2023/04/06 07:36:41;;;;;;;;;;;4.80;99.90;;;;;;5009071;28;19922;-77
2023/04/06 07:39:07;;;;;;;;;;;4.90;99.90;;;;;;5025459;28;20482;-77
2023/04/06 07:41:32;;;;;;;;;;;4.90;99.90;;;;;;5030226;28;19925;-77
2023/04/06 07:43:58;;;;;;;;;;;5.00;99.90;;;;;;5013721;28;20378;-79
2023/04/06 07:46:24;;;;;;;;;;;5.10;99.90;;;;;;4996797;28;19925;-76
2023/04/06 07:48:50;;;;;;;;;;;5.20;99.90;;;;;;5028684;28;20618;-78
2023/04/06 07:51:17;;;;;;;;;;;5.30;99.90;;;;;;5028936;28;19925;-77
2023/04/06 07:53:44;;;;;;;;;;;5.40;99.90;;;;;;5010002;28;20378;-77
2023/04/06 07:56:09;;;;;;;;;;;5.50;99.90;;;;;;5009829;28;19928;-77
2023/04/06 07:58:35;;;;;;;;;;;5.60;99.90;;;;;;4999485;28;19924;-76
2023/04/06 08:01:01;;;;;;;;;;;5.70;99.90;;;;;;5021673;28;19975;-75
2023/04/06 08:03:26;;;;;;;;;;;5.80;99.90;;;;;;5008481;28;20331;-74
2023/04/06 08:05:52;;;;;;;;;;;5.90;99.90;;;;;;5008239;28;19921;-75
2023/04/06 08:08:19;;;;;;;;;;;6.00;99.90;;;;;;5009478;28;20398;-74
2023/04/06 08:10:44;;;;;;;;;;;6.10;99.90;;;;;;5012589;28;19921;-73
2023/04/06 08:13:10;;;;;;;;;;;6.20;99.90;;;;;;5015719;28;20571;-73
2023/04/06 08:15:36;;;;;;;;;;;6.20;99.90;;;;;;5008720;28;20421;-73
2023/04/06 08:18:01;;;;;;;;;;;6.30;99.90;;;;;;5007634;28;19925;-76
2023/04/06 08:20:27;;;;;;;;;;;6.40;99.90;;;;;;4991553;28;20016;-77
2023/04/06 08:22:52;;;;;;;;;;;6.50;99.90;;;;;;5003680;28;19971;-79
2023/04/06 08:25:18;;;;;;;;;;;6.70;99.90;;;;;;4996543;28;19948;-79
2023/04/06 08:27:44;;;;;;;;;;;6.80;99.90;;;;;;4991972;28;19925;-79
2023/04/06 08:30:09;;;;;;;;;;;7.00;99.90;;;;;;5009006;28;19928;-78
2023/04/06 08:32:35;;;;;;;;;;;7.10;99.90;;;;;;4974869;28;19952;-78
2023/04/06 08:35:01;;;;;;;;;;;7.10;99.90;;;;;;5008457;28;19928;-77
2023/04/06 08:37:26;;;;;;;;;;;7.30;99.90;;;;;;5008688;28;19982;-75
2023/04/06 08:39:52;;;;;;;;;;;7.40;99.90;;;;;;5009078;28;20374;-79
2023/04/06 08:42:24;;;;;;;;;;;7.50;99.90;;;;;;5024069;28;19925;-76
2023/04/06 08:44:51;;;;;;;;;;;7.60;99.90;;;;;;5009504;28;19964;-76
2023/04/06 08:47:16;;;;;;;;;;;7.70;99.90;;;;;;4989968;28;19951;-76
2023/04/06 08:49:43;;;;;;;;;;;7.80;99.90;;;;;;5009226;28;19929;-76
2023/04/06 08:52:10;;;;;;;;;;;8.00;99.70;;;;;;4989855;28;19948;-76
2023/04/06 08:54:36;;;;;;;;;;;8.20;99.20;;;;;;4991888;28;20400;-77
2023/04/06 08:57:02;;;;;;;;;;;8.30;98.80;;;;;;4990945;28;20259;-77
2023/04/06 08:59:28;;;;;;;;;;;8.40;98.60;;;;;;5009110;28;20424;-76
2023/04/06 09:01:55;;;;;;;;;;;8.50;97.90;;;;;;5007787;28;19974;-78
2023/04/06 09:04:21;;;;;;;;;;;8.60;98.30;;;;;;5008616;28;19976;-76
2023/04/06 09:06:46;;;;;;;;;;;8.70;98.00;;;;;;5007707;28;19957;-76
2023/04/06 09:09:12;;;;;;;;;;;8.80;97.90;;;;;;4991411;28;20579;-76
2023/04/06 09:11:48;;;;;;;;;;;9.00;97.20;;;;;;5008786;28;19921;-75
2023/04/06 09:14:15;;;;;;;;;;;9.10;96.70;;;;;;4990964;28;19929;-79
2023/04/06 09:16:45;;;;;;;;;;;9.20;96.30;;;;;;5008447;28;20366;-78
2023/04/06 09:19:11;;;;;;;;;;;9.30;96.40;;;;;;4990411;28;20014;-81
2023/04/06 09:21:37;;;;;;;;;;;9.50;96.10;;;;;;5007648;28;19928;-76
2023/04/06 09:24:03;;;;;;;;;;;9.70;95.70;;;;;;5008430;28;19921;-81
2023/04/06 09:26:29;;;;;;;;;;;9.90;93.00;;;;;;5008554;28;19922;-77
2023/04/06 09:28:55;;;;;;;;;;;10.10;92.70;;;;;;4996544;28;19975;-71
2023/04/06 09:31:22;;;;;;;;;;;10.30;91.70;;;;;;5009916;28;19929;-69
2023/04/06 09:33:48;;;;;;;;;;;10.40;89.70;;;;;;5010147;28;19972;-68
2023/04/06 09:36:15;;;;;;;;;;;10.50;86.80;;;;;;5006665;28;19971;-69
2023/04/06 09:38:54;;;;;;;;;;;10.70;86.20;;;;;;5008052;28;19925;-68
2023/04/06 09:41:30;;;;;;;;;;;10.80;82.40;;;;;;5005077;28;19994;-68
2023/04/06 09:44:03;;;;;;;;;;;10.90;80.50;;;;;;4995689;28;20048;-68
2023/04/06 09:46:31;;;;;;;;;;;10.90;81.00;;;;;;5003445;28;19929;-69
2023/04/06 09:48:56;;;;;;;;;;;10.90;77.60;;;;;;5003216;28;19928;-69
2023/04/06 09:51:22;;;;;;;;;;;10.90;77.90;;;;;;5004568;28;19937;-69
2023/04/06 09:53:50;;;;;;;;;;;10.90;77.00;;;;;;5012968;28;19921;-69
2023/04/06 09:56:20;;;;;;;;;;;10.90;76.50;;;;;;5006402;28;20757;-69
2023/04/06 10:00:11;;;;;;;19.17;7.28;;;11.00;77.10;;;;;;5108953;27;20178;-68
2023/04/06 10:02:48;;;;;;;17.00;7.47;;;11.10;77.30;;;;;;5102685;28;20058;-68
2023/04/06 10:05:27;;;;;;;18.58;8.10;;;11.10;76.00;;;;;;5090102;28;20051;-68
2023/04/06 10:07:56;;;;;;;19.38;7.43;;;11.10;76.70;;;;;;5094706;28;20039;-68
2023/04/06 10:10:21;;;;;;;17.90;7.45;;;11.20;77.00;;;;;;5107061;28;20079;-68
2023/04/06 10:12:49;;;;;;;16.88;8.10;;;11.20;76.90;;;;;;5104992;28;20123;-68
2023/04/06 10:15:15;;;;;;;17.30;7.65;;;11.20;77.90;;;;;;5091527;28;20086;-68
2023/04/06 10:17:41;;;;;;;;;;;11.20;75.20;;;;;;5089431;28;20106;-68
2023/04/06 10:20:11;;;;;;;16.90;8.32;;;11.20;73.30;;;;;;5106178;28;20377;-69
2023/04/06 10:22:44;;;;;;;26.13;8.38;;;11.30;77.20;;;;;;5096683;28;20072;-68
2023/04/06 10:25:10;;;;;;;18.70;8.70;;;11.50;77.10;;;;;;5089764;28;20102;-69
2023/04/06 10:27:35;;;;;;;15.27;7.57;;;11.60;75.30;;;;;;5085701;28;20410;-68
2023/04/06 10:30:03;;;;;;;19.88;9.15;;;11.70;74.60;;;;;;5087677;28;20063;-69
2023/04/06 10:32:37;;;;;;;18.98;9.10;;;11.70;74.30;;;;;;5102485;28;20512;-69
2023/04/06 10:35:10;;;;;;;17.10;7.28;;;11.80;73.70;;;;;;5093169;28;20040;-69
2023/04/06 10:38:09;;;;;;;19.40;7.72;;;12.00;71.80;;;;;;5088407;28;20204;-68
2023/04/06 10:40:39;;;;;;;17.58;8.25;;;12.20;69.60;;;;;;5061865;28;20049;-69
2023/04/06 10:43:10;;;;;;;17.38;9.02;;;12.30;66.70;;;;;;5102749;28;20052;-69
2023/04/06 10:45:36;;;;;;;20.25;9.23;;;12.50;69.20;;;;;;5104752;28;20083;-69
2023/04/06 10:48:16;;;;;;;20.02;7.90;;;12.60;67.80;;;;;;5085445;28;20052;-69
2023/04/06 10:50:45;;;;;;;19.77;9.15;;;12.70;68.10;;;;;;5084940;28;20633;-69
2023/04/06 10:53:10;;;;;;;22.20;9.73;;;12.80;66.20;;;;;;5085522;28;20059;-69
2023/04/06 10:55:41;;;;;;;23.40;9.20;;;12.90;66.60;;;;;;5096651;28;20047;-69
2023/04/06 10:58:08;;;;;;;19.00;9.68;;;13.00;65.50;;;;;;5104921;28;20064;-67
2023/04/06 11:00:34;;;;;;;25.10;11.88;;;13.10;64.80;;;;;;5089912;28;20598;-68
2023/04/06 11:03:01;;;;;;;20.95;9.38;;;13.10;63.90;;;;;;5086024;28;20047;-68
2023/04/06 11:05:27;;;;;;;20.75;9.70;;;13.10;65.30;;;;;;5099442;28;20062;-69
2023/04/06 11:07:53;;;;;;;21.55;9.38;;;13.20;63.20;;;;;;5098390;28;20666;-69
2023/04/06 11:10:22;;;;;;;19.23;9.18;;;13.30;64.70;;;;;;5085989;28;20048;-72
2023/04/06 11:12:54;;;;;;;21.67;10.95;;;13.50;64.30;;;;;;5079382;28;20509;-69
2023/04/06 11:15:20;;;;;;;21.33;10.00;;;13.80;63.70;;;;;;5092871;28;20188;-69
2023/04/06 11:17:46;;;;;;;18.88;9.77;;;13.90;62.50;;;;;;5089349;28;20505;-69
2023/04/06 11:20:12;;;;;;;22.40;9.75;;;13.90;63.00;;;;;;5083511;28;20045;-69
2023/04/06 11:22:53;;;;;;;21.30;9.25;;;13.80;63.00;;;;;;5085863;28;20072;-69
2023/04/06 11:25:19;;;;;;;22.15;10.65;;;13.70;60.00;;;;;;5072737;28;20048;-69
2023/04/06 11:27:47;;;;;;;23.33;10.15;;;13.50;59.90;;;;;;5090235;28;20086;-69
2023/04/06 11:30:14;;;;;;;19.60;9.95;;;13.30;60.30;;;;;;5092712;28;20048;-68
2023/04/06 11:32:44;;;;;;;22.73;9.88;;;13.30;59.60;;;;;;5091342;28;20040;-69
2023/04/06 11:35:23;;;;;;;20.38;10.40;;;13.30;60.10;;;;;;5091881;28;20055;-69
2023/04/06 11:37:50;;;;;;;21.55;10.38;;;13.40;60.80;;;;;;5092720;28;20055;-69
2023/04/06 11:40:20;;;;;;;21.17;10.45;;;13.60;61.30;;;;;;5090449;28;20096;-69
2023/04/06 11:42:52;;;;;;;21.52;10.10;;;13.80;60.90;;;;;;5093056;28;20067;-69
2023/04/06 11:45:18;;;;;;;26.35;11.15;;;13.90;59.90;;;;;;5078659;28;20051;-75
2023/04/06 11:47:44;;;;;;;26.33;11.75;;;14.00;58.90;;;;;;5099824;28;20052;-77
2023/04/06 11:50:12;;;;;;;25.52;10.90;;;13.90;59.00;;;;;;5072567;28;20409;-77
2023/04/06 11:52:40;;;;;;;22.42;10.57;;;13.70;58.40;;;;;;5092158;28;20352;-77
2023/04/06 11:55:13;;;;;;;24.88;11.70;;;13.60;58.70;;;;;;5091082;28;20032;-77
2023/04/06 11:57:40;;;;;;;24.50;11.13;;;13.40;58.00;;;;;;5080184;28;20048;-78
2023/04/06 12:00:09;;;;;;;24.55;10.27;;;13.20;58.20;;;;;;5081738;28;19920;-80
2023/04/06 12:02:36;;;;;;;23.60;11.40;;;13.10;58.70;;;;;;5067730;28;20070;-79
2023/04/06 12:05:03;;;;;;;23.85;11.07;;;13.10;57.50;;;;;;5081896;28;20065;-78
2023/04/06 12:07:30;;;;;;;26.65;11.20;;;13.10;57.40;;;;;;5088178;28;20039;-82
2023/04/06 12:09:56;;;;;;;23.08;11.07;;;13.00;57.90;;;;;;5081755;28;20055;-78
2023/04/06 12:12:21;;;;;;;27.70;11.27;;;13.00;58.20;;;;;;5083939;28;20055;-81
2023/04/06 12:14:47;;;;;;;23.75;10.77;;;13.00;57.40;;;;;;5079333;28;20124;-79
2023/04/06 12:17:13;;;;;;;27.55;10.50;;;13.00;58.70;;;;;;5088389;28;20040;-79
2023/04/06 12:19:39;;;;;;;26.77;12.50;;;13.00;58.60;;;;;;5090789;28;20480;-78
2023/04/06 12:22:05;;;;;;;27.48;11.27;;;13.20;59.00;;;;;;5072129;28;20379;-76
2023/04/06 12:24:30;;;;;;;26.10;11.05;;;13.30;58.70;;;;;;5077080;28;20406;-78
2023/04/06 12:26:57;;;;;;;27.35;10.90;;;13.30;58.20;;;;;;5088925;28;20105;-77
2023/04/06 12:29:24;;;;;;;;;;;13.30;57.30;;;;;;5091354;28;20119;-76
2023/04/06 12:31:50;;;;;;;31.35;11.18;;;13.30;58.70;;;;;;5076703;28;19930;-76
2023/04/06 12:34:16;;;;;;;;;;;13.30;57.50;;;;;;5090400;28;20048;-76
2023/04/06 12:36:42;;;;;;;28.20;10.52;;;13.30;58.30;;;;;;5090124;28;19943;-76
2023/04/06 12:39:07;;;;;;;26.17;11.40;;;13.30;57.80;;;;;;5091535;28;20477;-76
2023/04/06 12:41:34;;;;;;;23.17;10.23;;;13.40;57.90;;;;;;5088828;28;20040;-76
2023/04/06 12:44:00;;;;;;;24.80;10.70;;;13.50;59.10;;;;;;5086953;28;20052;-75
2023/04/06 12:46:26;;;;;;;25.73;11.38;;;13.50;57.80;;;;;;5090636;28;20043;-76
2023/04/06 12:48:53;;;;;;;23.50;10.70;;;13.50;57.40;;;;;;5089789;28;20082;-76
2023/04/06 12:51:19;;;;;;;25.00;10.70;;;13.40;57.40;;;;;;5072081;28;20100;-76
2023/04/06 12:53:45;;;;;;;;;;;13.40;57.70;;;;;;5091088;28;20074;-76
2023/04/06 12:56:17;;;;;;;23.20;10.98;;;13.50;57.80;;;;;;5090162;28;20357;-76
2023/04/06 12:58:43;;;;;;;24.95;10.18;;;13.60;57.90;;;;;;5091200;28;20163;-76
2023/04/06 13:01:09;;;;;;;;;;;13.70;57.60;;;;;;5089298;28;20055;-76
2023/04/06 13:03:36;;;;;;;22.40;10.10;;;13.70;56.50;;;;;;5085615;28;19966;-76
2023/04/06 13:06:02;;;;;;;22.73;9.93;;;13.70;56.70;;;;;;5083356;28;20044;-76
2023/04/06 13:08:27;;;;;;;;;;;13.70;56.40;;;;;;5087844;28;20076;-76
2023/04/06 13:10:53;;;;;;;29.75;10.15;;;13.70;56.60;;;;;;5087002;28;19971;-76
2023/04/06 13:13:23;;;;;;;;;;;13.80;57.50;;;;;;5090788;28;20101;-75
2023/04/06 13:15:49;;;;;;;25.05;10.52;;;13.70;57.80;;;;;;5089977;28;19923;-75
2023/04/06 13:18:15;;;;;;;24.70;10.43;;;13.70;57.70;;;;;;5089779;28;20044;-75
2023/04/06 13:20:42;;;;;;;22.23;9.45;;;13.60;58.20;;;;;;5090262;28;20055;-75
2023/04/06 13:23:08;;;;;;;23.75;10.30;;;13.50;58.70;;;;;;5089724;28;20047;-73
2023/04/06 13:25:33;;;;;;;21.63;10.07;;;13.50;57.70;;;;;;5084248;28;20036;-75
2023/04/06 13:27:59;;;;;;;21.92;9.43;;;13.40;58.00;;;;;;5084989;28;20048;-75
2023/04/06 13:30:25;;;;;;;24.58;9.82;;;13.30;58.20;;;;;;5088563;28;20105;-77
2023/04/06 13:32:51;;;;;;;20.15;9.65;;;13.30;59.60;;;;;;5088562;28;20048;-78
2023/04/06 13:35:17;;;;;;;21.63;8.90;;;13.30;60.00;;;;;;5089275;28;20052;-76
2023/04/06 13:37:43;;;;;;;;;;;13.30;60.30;;;;;;5089523;28;20544;-78
2023/04/06 13:40:10;;;;;;;18.73;8.90;;;13.30;60.60;;;;;;5089730;28;19924;-77
2023/04/06 13:42:36;;;;;;;18.80;8.80;;;13.30;61.00;;;;;;5088690;28;20051;-80
2023/04/06 13:45:02;;;;;;;23.05;9.30;;;13.30;60.30;;;;;;5088911;28;20051;-78
2023/04/06 13:47:27;;;;;;;20.55;9.65;;;13.20;60.70;;;;;;5087309;28;20044;-80
2023/04/06 13:49:55;;;;;;;22.98;9.43;;;13.20;61.00;;;;;;5067560;28;20041;-81
2023/04/06 13:52:20;;;;;;;21.23;8.50;;;13.10;61.70;;;;;;5088206;28;20067;-77
2023/04/06 13:54:46;;;;;;;21.65;9.85;;;13.10;62.10;;;;;;5089586;28;20525;-77